sensor_id;sensor_type;location;lat;lon;timestamp;P1;durP1;ratioP1;P2;durP2;ratioP2
56005;SDS011;41888;44.696;10.522;2023-04-06T00:02:22;6.95;;;2.95;;
56005;SDS011;41888;44.696;10.522;2023-04-06T00:04:48;7.90;;;3.90;;
56005;SDS011;41888;44.696;10.522;2023-04-06T00:07:15;4.95;;;3.13;;
56005;SDS011;41888;44.696;10.522;2023-04-06T00:09:41;7.70;;;3.80;;
56005;SDS011;41888;44.696;10.522;2023-04-06T00:12:07;8.10;;;3.92;;
56005;SDS011;41888;44.696;10.522;2023-04-06T00:14:33;6.43;;;3.28;;
56005;SDS011;41888;44.696;10.522;2023-04-06T00:16:59;7.85;;;4.00;;
56005;SDS011;41888;44.696;10.522;2023-04-06T00:19:26;7.50;;;4.10;;
56005;SDS011;41888;44.696;10.522;2023-04-06T00:21:52;8.57;;;3.33;;
56005;SDS011;41888;44.696;10.522;2023-04-06T00:24:18;7.47;;;3.67;;
56005;SDS011;41888;44.696;10.522;2023-04-06T00:26:45;7.25;;;3.90;;
56005;SDS011;41888;44.696;10.522;2023-04-06T00:29:11;7.85;;;3.75;;
56005;SDS011;41888;44.696;10.522;2023-04-06T00:31:37;6.13;;;3.25;;
56005;SDS011;41888;44.696;10.522;2023-04-06T00:34:03;9.05;;;3.55;;
56005;SDS011;41888;44.696;10.522;2023-04-06T00:36:30;6.20;;;3.97;;
56005;SDS011;41888;44.696;10.522;2023-04-06T00:38:56;7.85;;;4.13;;
56005;SDS011;41888;44.696;10.522;2023-04-06T00:41:22;7.72;;;3.58;;
56005;SDS011;41888;44.696;10.522;2023-04-06T00:43:49;7.05;;;3.42;;
56005;SDS011;41888;44.696;10.522;2023-04-06T00:46:15;7.82;;;4.10;;
56005;SDS011;41888;44.696;10.522;2023-04-06T00:48:42;6.05;;;3.63;;
56005;SDS011;41888;44.696;10.522;2023-04-06T00:51:08;8.85;;;4.18;;
56005;SDS011;41888;44.696;10.522;2023-04-06T00:53:34;6.55;;;3.83;;
56005;SDS011;41888;44.696;10.522;2023-04-06T00:56:01;7.00;;;4.03;;
56005;SDS011;41888;44.696;10.522;2023-04-06T00:58:27;7.20;;;4.40;;
56005;SDS011;41888;44.696;10.522;2023-04-06T01:00:53;6.80;;;3.72;;
56005;SDS011;41888;44.696;10.522;2023-04-06T01:03:20;5.95;;;3.90;;
56005;SDS011;41888;44.696;10.522;2023-04-06T01:05:47;6.78;;;3.72;;
56005;SDS011;41888;44.696;10.522;2023-04-06T01:08:13;6.50;;;3.67;;
56005;SDS011;41888;44.696;10.522;2023-04-06T01:10:39;7.32;;;4.65;;
56005;SDS011;41888;44.696;10.522;2023-04-06T01:13:05;5.45;;;3.50;;
56005;SDS011;41888;44.696;10.522;2023-04-06T01:15:33;8.82;;;3.38;;
56005;SDS011;41888;44.696;10.522;2023-04-06T01:18:00;7.53;;;4.05;;
56005;SDS011;41888;44.696;10.522;2023-04-06T01:20:27;6.45;;;3.85;;
56005;SDS011;41888;44.696;10.522;2023-04-06T01:22:53;8.07;;;3.85;;
56005;SDS011;41888;44.696;10.522;2023-04-06T01:25:19;10.05;;;4.45;;
56005;SDS011;41888;44.696;10.522;2023-04-06T01:27:45;7.70;;;4.32;;
56005;SDS011;41888;44.696;10.522;2023-04-06T01:30:12;11.45;;;4.63;;
56005;SDS011;41888;44.696;10.522;2023-04-06T01:32:38;7.18;;;4.55;;
56005;SDS011;41888;44.696;10.522;2023-04-06T01:35:04;6.25;;;3.55;;
56005;SDS011;41888;44.696;10.522;2023-04-06T01:37:31;6.43;;;4.25;;
56005;SDS011;41888;44.696;10.522;2023-04-06T01:39:57;6.70;;;4.28;;
56005;SDS011;41888;44.696;10.522;2023-04-06T01:42:24;10.18;;;5.28;;
56005;SDS011;41888;44.696;10.522;2023-04-06T01:44:51;6.28;;;4.07;;
56005;SDS011;41888;44.696;10.522;2023-04-06T01:47:17;7.53;;;4.20;;
56005;SDS011;41888;44.696;10.522;2023-04-06T01:49:43;6.80;;;3.83;;
56005;SDS011;41888;44.696;10.522;2023-04-06T01:52:10;8.32;;;4.20;;
56005;SDS011;41888;44.696;10.522;2023-04-06T01:54:36;9.45;;;5.07;;
56005;SDS011;41888;44.696;10.522;2023-04-06T01:57:02;10.68;;;5.50;;
56005;SDS011;41888;44.696;10.522;2023-04-06T01:59:28;9.18;;;5.25;;
56005;SDS011;41888;44.696;10.522;2023-04-06T02:01:54;7.63;;;4.85;;
56005;SDS011;41888;44.696;10.522;2023-04-06T02:04:21;9.60;;;5.18;;
56005;SDS011;41888;44.696;10.522;2023-04-06T02:06:47;7.55;;;4.50;;
56005;SDS011;41888;44.696;10.522;2023-04-06T02:09:13;8.25;;;4.40;;
56005;SDS011;41888;44.696;10.522;2023-04-06T02:11:40;7.70;;;4.60;;
56005;SDS011;41888;44.696;10.522;2023-04-06T02:14:06;6.68;;;4.05;;
56005;SDS011;41888;44.696;10.522;2023-04-06T02:16:33;8.40;;;4.50;;
56005;SDS011;41888;44.696;10.522;2023-04-06T02:18:59;9.13;;;3.55;;
56005;SDS011;41888;44.696;10.522;2023-04-06T02:21:25;7.72;;;4.25;;
56005;SDS011;41888;44.696;10.522;2023-04-06T02:23:51;8.45;;;4.15;;
56005;SDS011;41888;44.696;10.522;2023-04-06T02:26:17;7.38;;;4.13;;
56005;SDS011;41888;44.696;10.522;2023-04-06T02:28:45;8.07;;;3.83;;
56005;SDS011;41888;44.696;10.522;2023-04-06T02:31:11;9.38;;;4.78;;
56005;SDS011;41888;44.696;10.522;2023-04-06T02:33:39;9.10;;;4.50;;
56005;SDS011;41888;44.696;10.522;2023-04-06T02:36:06;7.35;;;3.80;;
56005;SDS011;41888;44.696;10.522;2023-04-06T02:38:32;11.20;;;4.20;;
56005;SDS011;41888;44.696;10.522;2023-04-06T02:40:58;8.48;;;3.97;;
56005;SDS011;41888;44.696;10.522;2023-04-06T02:43:25;6.40;;;4.50;;
56005;SDS011;41888;44.696;10.522;2023-04-06T02:45:51;9.18;;;4.65;;
56005;SDS011;41888;44.696;10.522;2023-04-06T02:48:18;6.00;;;3.70;;
56005;SDS011;41888;44.696;10.522;2023-04-06T02:50:44;9.02;;;4.40;;
56005;SDS011;41888;44.696;10.522;2023-04-06T02:53:10;5.03;;;3.30;;
56005;SDS011;41888;44.696;10.522;2023-04-06T02:55:36;4.70;;;3.53;;
56005;SDS011;41888;44.696;10.522;2023-04-06T02:58:02;10.75;;;4.00;;
56005;SDS011;41888;44.696;10.522;2023-04-06T03:00:29;7.28;;;3.97;;
56005;SDS011;41888;44.696;10.522;2023-04-06T03:02:55;7.93;;;4.35;;
56005;SDS011;41888;44.696;10.522;2023-04-06T03:05:21;6.55;;;4.07;;
56005;SDS011;41888;44.696;10.522;2023-04-06T03:07:48;7.00;;;3.88;;
56005;SDS011;41888;44.696;10.522;2023-04-06T03:10:14;6.85;;;4.47;;
56005;SDS011;41888;44.696;10.522;2023-04-06T03:12:40;6.47;;;3.83;;
56005;SDS011;41888;44.696;10.522;2023-04-06T03:15:07;7.93;;;4.45;;
56005;SDS011;41888;44.696;10.522;2023-04-06T03:17:34;7.30;;;4.43;;
56005;SDS011;41888;44.696;10.522;2023-04-06T03:20:00;5.50;;;3.92;;
56005;SDS011;41888;44.696;10.522;2023-04-06T03:22:27;8.35;;;4.20;;
56005;SDS011;41888;44.696;10.522;2023-04-06T03:24:54;9.57;;;3.75;;
56005;SDS011;41888;44.696;10.522;2023-04-06T03:27:20;8.07;;;4.15;;
56005;SDS011;41888;44.696;10.522;2023-04-06T03:29:46;9.00;;;4.05;;
56005;SDS011;41888;44.696;10.522;2023-04-06T03:32:12;7.55;;;4.38;;
56005;SDS011;41888;44.696;10.522;2023-04-06T03:34:38;6.82;;;4.07;;
56005;SDS011;41888;44.696;10.522;2023-04-06T03:37:05;8.50;;;3.70;;
56005;SDS011;41888;44.696;10.522;2023-04-06T03:39:31;8.00;;;3.65;;
56005;SDS011;41888;44.696;10.522;2023-04-06T03:41:57;6.53;;;3.72;;
56005;SDS011;41888;44.696;10.522;2023-04-06T03:44:23;6.03;;;3.33;;
56005;SDS011;41888;44.696;10.522;2023-04-06T03:46:49;10.55;;;3.80;;
56005;SDS011;41888;44.696;10.522;2023-04-06T03:49:16;6.78;;;4.45;;
56005;SDS011;41888;44.696;10.522;2023-04-06T03:51:42;9.35;;;3.78;;
56005;SDS011;41888;44.696;10.522;2023-04-06T03:54:08;5.13;;;2.97;;
56005;SDS011;41888;44.696;10.522;2023-04-06T03:56:34;5.38;;;3.63;;
56005;SDS011;41888;44.696;10.522;2023-04-06T03:59:00;7.40;;;4.93;;
56005;SDS011;41888;44.696;10.522;2023-04-06T04:01:27;6.05;;;3.05;;
56005;SDS011;41888;44.696;10.522;2023-04-06T04:03:53;8.18;;;3.60;;
56005;SDS011;41888;44.696;10.522;2023-04-06T04:06:20;6.65;;;2.78;;
56005;SDS011;41888;44.696;10.522;2023-04-06T04:08:46;4.75;;;3.35;;
56005;SDS011;41888;44.696;10.522;2023-04-06T04:11:12;6.57;;;3.38;;
56005;SDS011;41888;44.696;10.522;2023-04-06T04:13:40;7.28;;;3.33;;
56005;SDS011;41888;44.696;10.522;2023-04-06T04:16:06;7.00;;;4.63;;
56005;SDS011;41888;44.696;10.522;2023-04-06T04:18:33;6.75;;;3.60;;
56005;SDS011;41888;44.696;10.522;2023-04-06T04:20:59;6.60;;;3.15;;
56005;SDS011;41888;44.696;10.522;2023-04-06T04:23:25;5.35;;;3.65;;
56005;SDS011;41888;44.696;10.522;2023-04-06T04:25:51;6.78;;;3.30;;
56005;SDS011;41888;44.696;10.522;2023-04-06T04:28:17;6.78;;;3.28;;
56005;SDS011;41888;44.696;10.522;2023-04-06T04:30:44;5.80;;;3.55;;
56005;SDS011;41888;44.696;10.522;2023-04-06T04:33:10;7.40;;;3.80;;
56005;SDS011;41888;44.696;10.522;2023-04-06T04:35:37;6.28;;;3.78;;
56005;SDS011;41888;44.696;10.522;2023-04-06T04:38:03;9.32;;;3.70;;
56005;SDS011;41888;44.696;10.522;2023-04-06T04:40:30;5.70;;;3.45;;
56005;SDS011;41888;44.696;10.522;2023-04-06T04:42:56;5.72;;;3.17;;
56005;SDS011;41888;44.696;10.522;2023-04-06T04:45:22;6.72;;;3.63;;
56005;SDS011;41888;44.696;10.522;2023-04-06T04:47:48;6.90;;;4.03;;
56005;SDS011;41888;44.696;10.522;2023-04-06T04:50:14;9.98;;;3.97;;
56005;SDS011;41888;44.696;10.522;2023-04-06T04:52:41;6.90;;;3.85;;
56005;SDS011;41888;44.696;10.522;2023-04-06T04:55:07;5.63;;;3.55;;
56005;SDS011;41888;44.696;10.522;2023-04-06T04:57:33;12.23;;;4.25;;
56005;SDS011;41888;44.696;10.522;2023-04-06T04:59:59;6.68;;;3.67;;
56005;SDS011;41888;44.696;10.522;2023-04-06T05:02:27;4.95;;;3.83;;
56005;SDS011;41888;44.696;10.522;2023-04-06T05:04:53;5.15;;;3.55;;
56005;SDS011;41888;44.696;10.522;2023-04-06T05:07:19;5.88;;;3.50;;
56005;SDS011;41888;44.696;10.522;2023-04-06T05:09:46;7.65;;;4.00;;
56005;SDS011;41888;44.696;10.522;2023-04-06T05:12:12;6.22;;;3.70;;
56005;SDS011;41888;44.696;10.522;2023-04-06T05:14:39;10.68;;;3.92;;
56005;SDS011;41888;44.696;10.522;2023-04-06T05:17:05;14.70;;;5.10;;
56005;SDS011;41888;44.696;10.522;2023-04-06T05:19:32;8.60;;;4.32;;
56005;SDS011;41888;44.696;10.522;2023-04-06T05:21:58;8.07;;;4.50;;
56005;SDS011;41888;44.696;10.522;2023-04-06T05:24:24;7.43;;;3.75;;
56005;SDS011;41888;44.696;10.522;2023-04-06T05:26:50;7.45;;;3.80;;
56005;SDS011;41888;44.696;10.522;2023-04-06T05:29:17;8.80;;;3.72;;
56005;SDS011;41888;44.696;10.522;2023-04-06T05:31:45;8.70;;;3.55;;
56005;SDS011;41888;44.696;10.522;2023-04-06T05:34:11;6.03;;;3.22;;
56005;SDS011;41888;44.696;10.522;2023-04-06T05:36:37;8.63;;;5.07;;
56005;SDS011;41888;44.696;10.522;2023-04-06T05:39:05;7.07;;;4.28;;
56005;SDS011;41888;44.696;10.522;2023-04-06T05:41:32;5.82;;;3.85;;
56005;SDS011;41888;44.696;10.522;2023-04-06T05:43:58;7.55;;;4.35;;
56005;SDS011;41888;44.696;10.522;2023-04-06T05:46:24;8.63;;;4.05;;
56005;SDS011;41888;44.696;10.522;2023-04-06T05:48:50;5.90;;;4.10;;
56005;SDS011;41888;44.696;10.522;2023-04-06T05:51:17;8.88;;;4.18;;
56005;SDS011;41888;44.696;10.522;2023-04-06T05:53:43;9.02;;;4.07;;
56005;SDS011;41888;44.696;10.522;2023-04-06T05:56:09;8.13;;;4.20;;
56005;SDS011;41888;44.696;10.522;2023-04-06T05:58:36;8.50;;;3.92;;
56005;SDS011;41888;44.696;10.522;2023-04-06T06:01:02;7.20;;;5.00;;
56005;SDS011;41888;44.696;10.522;2023-04-06T06:03:29;9.10;;;4.07;;
56005;SDS011;41888;44.696;10.522;2023-04-06T06:06:02;9.40;;;5.10;;
56005;SDS011;41888;44.696;10.522;2023-04-06T06:08:29;9.55;;;4.88;;
56005;SDS011;41888;44.696;10.522;2023-04-06T06:10:56;9.48;;;3.95;;
56005;SDS011;41888;44.696;10.522;2023-04-06T06:13:22;6.28;;;3.70;;
56005;SDS011;41888;44.696;10.522;2023-04-06T06:15:49;8.38;;;5.45;;
56005;SDS011;41888;44.696;10.522;2023-04-06T06:18:16;10.45;;;4.50;;
56005;SDS011;41888;44.696;10.522;2023-04-06T06:20:42;7.10;;;3.90;;
56005;SDS011;41888;44.696;10.522;2023-04-06T06:23:08;6.93;;;4.68;;
56005;SDS011;41888;44.696;10.522;2023-04-06T06:25:34;6.75;;;4.38;;
56005;SDS011;41888;44.696;10.522;2023-04-06T06:28:00;10.02;;;4.40;;
56005;SDS011;41888;44.696;10.522;2023-04-06T06:30:27;9.05;;;4.53;;
56005;SDS011;41888;44.696;10.522;2023-04-06T06:32:53;10.27;;;4.35;;
56005;SDS011;41888;44.696;10.522;2023-04-06T06:35:19;7.50;;;4.38;;
56005;SDS011;41888;44.696;10.522;2023-04-06T06:37:45;10.90;;;4.72;;
56005;SDS011;41888;44.696;10.522;2023-04-06T06:40:11;12.98;;;5.40;;
56005;SDS011;41888;44.696;10.522;2023-04-06T06:42:38;7.72;;;5.05;;
56005;SDS011;41888;44.696;10.522;2023-04-06T06:45:06;13.18;;;4.88;;
56005;SDS011;41888;44.696;10.522;2023-04-06T06:47:34;8.43;;;4.50;;
56005;SDS011;41888;44.696;10.522;2023-04-06T06:50:00;12.43;;;5.68;;
56005;SDS011;41888;44.696;10.522;2023-04-06T06:52:28;9.32;;;4.75;;
56005;SDS011;41888;44.696;10.522;2023-04-06T06:54:54;10.45;;;4.55;;
56005;SDS011;41888;44.696;10.522;2023-04-06T06:57:21;6.50;;;3.83;;
56005;SDS011;41888;44.696;10.522;2023-04-06T06:59:47;7.53;;;3.65;;
56005;SDS011;41888;44.696;10.522;2023-04-06T07:02:14;4.88;;;3.13;;
56005;SDS011;41888;44.696;10.522;2023-04-06T07:04:40;5.00;;;3.42;;
56005;SDS011;41888;44.696;10.522;2023-04-06T07:07:06;12.10;;;3.80;;
56005;SDS011;41888;44.696;10.522;2023-04-06T07:09:33;6.07;;;3.60;;
56005;SDS011;41888;44.696;10.522;2023-04-06T07:12:00;4.45;;;3.13;;
56005;SDS011;41888;44.696;10.522;2023-04-06T07:14:27;4.85;;;3.17;;
56005;SDS011;41888;44.696;10.522;2023-04-06T07:16:53;6.72;;;3.47;;
56005;SDS011;41888;44.696;10.522;2023-04-06T07:19:19;6.00;;;3.40;;
56005;SDS011;41888;44.696;10.522;2023-04-06T07:21:45;5.85;;;3.83;;
56005;SDS011;41888;44.696;10.522;2023-04-06T07:24:11;6.03;;;3.42;;
56005;SDS011;41888;44.696;10.522;2023-04-06T07:26:38;5.22;;;3.80;;
56005;SDS011;41888;44.696;10.522;2023-04-06T07:29:04;7.28;;;3.83;;
56005;SDS011;41888;44.696;10.522;2023-04-06T07:31:30;9.15;;;4.57;;
56005;SDS011;41888;44.696;10.522;2023-04-06T07:33:57;5.82;;;3.78;;
56005;SDS011;41888;44.696;10.522;2023-04-06T07:36:23;6.18;;;4.43;;
56005;SDS011;41888;44.696;10.522;2023-04-06T07:38:49;7.28;;;4.15;;
56005;SDS011;41888;44.696;10.522;2023-04-06T07:41:15;8.00;;;4.57;;
56005;SDS011;41888;44.696;10.522;2023-04-06T07:43:42;11.32;;;4.60;;
56005;SDS011;41888;44.696;10.522;2023-04-06T07:46:08;7.15;;;4.18;;
56005;SDS011;41888;44.696;10.522;2023-04-06T07:48:34;7.70;;;4.53;;
56005;SDS011;41888;44.696;10.522;2023-04-06T07:51:02;8.45;;;4.28;;
56005;SDS011;41888;44.696;10.522;2023-04-06T07:53:30;4.80;;;3.83;;
56005;SDS011;41888;44.696;10.522;2023-04-06T07:55:57;4.75;;;3.80;;
56005;SDS011;41888;44.696;10.522;2023-04-06T07:58:24;8.20;;;4.07;;
56005;SDS011;41888;44.696;10.522;2023-04-06T08:00:51;7.35;;;4.50;;
56005;SDS011;41888;44.696;10.522;2023-04-06T08:03:17;7.32;;;3.72;;
56005;SDS011;41888;44.696;10.522;2023-04-06T08:05:45;8.40;;;4.47;;
56005;SDS011;41888;44.696;10.522;2023-04-06T08:08:11;8.45;;;4.03;;
56005;SDS011;41888;44.696;10.522;2023-04-06T08:10:38;8.07;;;5.57;;
56005;SDS011;41888;44.696;10.522;2023-04-06T08:13:04;11.38;;;4.78;;
56005;SDS011;41888;44.696;10.522;2023-04-06T08:15:30;10.93;;;4.90;;
56005;SDS011;41888;44.696;10.522;2023-04-06T08:17:56;9.70;;;4.13;;
56005;SDS011;41888;44.696;10.522;2023-04-06T08:20:22;7.03;;;3.83;;
56005;SDS011;41888;44.696;10.522;2023-04-06T08:22:49;8.68;;;3.72;;
56005;SDS011;41888;44.696;10.522;2023-04-06T08:25:15;7.53;;;3.53;;
56005;SDS011;41888;44.696;10.522;2023-04-06T08:27:41;6.38;;;3.42;;
56005;SDS011;41888;44.696;10.522;2023-04-06T08:30:07;4.78;;;3.30;;
56005;SDS011;41888;44.696;10.522;2023-04-06T08:32:34;8.70;;;4.03;;
56005;SDS011;41888;44.696;10.522;2023-04-06T08:35:00;7.43;;;3.80;;
56005;SDS011;41888;44.696;10.522;2023-04-06T08:37:27;12.88;;;4.55;;
56005;SDS011;41888;44.696;10.522;2023-04-06T08:39:53;8.60;;;4.15;;
56005;SDS011;41888;44.696;10.522;2023-04-06T08:42:20;7.07;;;4.15;;
56005;SDS011;41888;44.696;10.522;2023-04-06T08:44:49;9.52;;;4.20;;
56005;SDS011;41888;44.696;10.522;2023-04-06T08:47:17;6.40;;;4.53;;
56005;SDS011;41888;44.696;10.522;2023-04-06T08:49:44;12.25;;;4.57;;
56005;SDS011;41888;44.696;10.522;2023-04-06T08:52:11;11.45;;;4.38;;
56005;SDS011;41888;44.696;10.522;2023-04-06T08:54:38;9.88;;;4.85;;
56005;SDS011;41888;44.696;10.522;2023-04-06T08:57:05;8.73;;;4.78;;
56005;SDS011;41888;44.696;10.522;2023-04-06T08:59:32;8.68;;;4.57;;
56005;SDS011;41888;44.696;10.522;2023-04-06T09:01:59;5.72;;;4.10;;
56005;SDS011;41888;44.696;10.522;2023-04-06T09:04:28;6.15;;;4.65;;
56005;SDS011;41888;44.696;10.522;2023-04-06T09:06:55;8.52;;;4.72;;
56005;SDS011;41888;44.696;10.522;2023-04-06T09:09:21;8.10;;;4.43;;
56005;SDS011;41888;44.696;10.522;2023-04-06T09:11:50;9.27;;;5.05;;
56005;SDS011;41888;44.696;10.522;2023-04-06T09:14:17;6.70;;;4.47;;
56005;SDS011;41888;44.696;10.522;2023-04-06T09:17:04;8.40;;;3.85;;
56005;SDS011;41888;44.696;10.522;2023-04-06T09:19:30;6.82;;;3.65;;
56005;SDS011;41888;44.696;10.522;2023-04-06T09:22:03;7.70;;;4.05;;
56005;SDS011;41888;44.696;10.522;2023-04-06T09:24:45;6.78;;;3.88;;
56005;SDS011;41888;44.696;10.522;2023-04-06T09:27:13;14.05;;;5.07;;
56005;SDS011;41888;44.696;10.522;2023-04-06T09:29:43;9.32;;;4.40;;
56005;SDS011;41888;44.696;10.522;2023-04-06T09:32:10;5.95;;;4.18;;
56005;SDS011;41888;44.696;10.522;2023-04-06T09:34:40;6.32;;;3.03;;
56005;SDS011;41888;44.696;10.522;2023-04-06T09:37:13;7.43;;;3.50;;
56005;SDS011;41888;44.696;10.522;2023-04-06T09:39:43;5.90;;;4.10;;
56005;SDS011;41888;44.696;10.522;2023-04-06T09:42:11;5.90;;;3.20;;
56005;SDS011;41888;44.696;10.522;2023-04-06T09:44:48;7.07;;;3.13;;
56005;SDS011;41888;44.696;10.522;2023-04-06T09:47:14;4.63;;;3.45;;
56005;SDS011;41888;44.696;10.522;2023-04-06T09:49:42;6.53;;;3.03;;
56005;SDS011;41888;44.696;10.522;2023-04-06T09:52:11;6.07;;;3.58;;
56005;SDS011;41888;44.696;10.522;2023-04-06T09:54:37;7.55;;;3.47;;
56005;SDS011;41888;44.696;10.522;2023-04-06T09:58:06;6.53;;;3.60;;
56005;SDS011;41888;44.696;10.522;2023-04-06T10:00:23;5.10;;;3.20;;
56005;SDS011;41888;44.696;10.522;2023-04-06T10:02:58;5.53;;;2.80;;
56005;SDS011;41888;44.696;10.522;2023-04-06T10:07:57;4.72;;;3.38;;
56005;SDS011;41888;44.696;10.522;2023-04-06T10:10:27;5.43;;;3.13;;
56005;SDS011;41888;44.696;10.522;2023-04-06T10:12:54;4.85;;;3.20;;
56005;SDS011;41888;44.696;10.522;2023-04-06T10:15:21;7.15;;;3.47;;
56005;SDS011;41888;44.696;10.522;2023-04-06T10:17:48;4.72;;;3.35;;
56005;SDS011;41888;44.696;10.522;2023-04-06T10:22:51;8.52;;;4.13;;
56005;SDS011;41888;44.696;10.522;2023-04-06T10:25:32;8.35;;;4.13;;
56005;SDS011;41888;44.696;10.522;2023-04-06T10:28:00;6.10;;;4.20;;
56005;SDS011;41888;44.696;10.522;2023-04-06T10:30:26;8.25;;;3.50;;
56005;SDS011;41888;44.696;10.522;2023-04-06T10:32:54;4.55;;;3.38;;
56005;SDS011;41888;44.696;10.522;2023-04-06T10:35:20;6.70;;;3.50;;
56005;SDS011;41888;44.696;10.522;2023-04-06T10:37:54;4.43;;;3.35;;
56005;SDS011;41888;44.696;10.522;2023-04-06T10:40:30;5.53;;;3.60;;
56005;SDS011;41888;44.696;10.522;2023-04-06T10:43:07;6.28;;;3.65;;
56005;SDS011;41888;44.696;10.522;2023-04-06T10:45:34;6.10;;;3.55;;
56005;SDS011;41888;44.696;10.522;2023-04-06T10:48:12;9.18;;;3.65;;
56005;SDS011;41888;44.696;10.522;2023-04-06T10:50:40;5.05;;;3.78;;
56005;SDS011;41888;44.696;10.522;2023-04-06T10:53:08;4.93;;;3.13;;
56005;SDS011;41888;44.696;10.522;2023-04-06T10:55:38;7.10;;;3.40;;
56005;SDS011;41888;44.696;10.522;2023-04-06T10:58:06;6.78;;;4.20;;
56005;SDS011;41888;44.696;10.522;2023-04-06T11:00:33;5.22;;;4.18;;
56005;SDS011;41888;44.696;10.522;2023-04-06T11:03:00;6.30;;;3.60;;
56005;SDS011;41888;44.696;10.522;2023-04-06T11:05:27;6.10;;;3.70;;
56005;SDS011;41888;44.696;10.522;2023-04-06T11:07:53;8.02;;;3.78;;
56005;SDS011;41888;44.696;10.522;2023-04-06T11:10:22;7.07;;;3.50;;
56005;SDS011;41888;44.696;10.522;2023-04-06T11:12:55;5.88;;;3.92;;
56005;SDS011;41888;44.696;10.522;2023-04-06T11:15:21;6.90;;;3.97;;
56005;SDS011;41888;44.696;10.522;2023-04-06T11:17:48;5.57;;;3.70;;
56005;SDS011;41888;44.696;10.522;2023-04-06T11:20:14;6.05;;;4.22;;
56005;SDS011;41888;44.696;10.522;2023-04-06T11:22:52;6.07;;;4.05;;
56005;SDS011;41888;44.696;10.522;2023-04-06T11:25:19;8.00;;;3.90;;
56005;SDS011;41888;44.696;10.522;2023-04-06T11:27:46;5.45;;;3.80;;
56005;SDS011;41888;44.696;10.522;2023-04-06T11:30:13;8.05;;;4.05;;
56005;SDS011;41888;44.696;10.522;2023-04-06T11:32:40;6.93;;;3.78;;
56005;SDS011;41888;44.696;10.522;2023-04-06T11:35:11;8.27;;;4.05;;
56005;SDS011;41888;44.696;10.522;2023-04-06T11:37:44;9.45;;;4.90;;
56005;SDS011;41888;44.696;10.522;2023-04-06T11:40:11;7.07;;;4.30;;
56005;SDS011;41888;44.696;10.522;2023-04-06T11:42:37;5.97;;;3.83;;
56005;SDS011;41888;44.696;10.522;2023-04-06T11:45:03;7.07;;;4.07;;
56005;SDS011;41888;44.696;10.522;2023-04-06T11:47:36;5.80;;;3.97;;
56005;SDS011;41888;44.696;10.522;2023-04-06T11:50:12;7.20;;;4.82;;
56005;SDS011;41888;44.696;10.522;2023-04-06T11:52:40;6.45;;;4.25;;
56005;SDS011;41888;44.696;10.522;2023-04-06T11:55:11;7.88;;;4.30;;
56005;SDS011;41888;44.696;10.522;2023-04-06T11:57:39;7.78;;;5.18;;
56005;SDS011;41888;44.696;10.522;2023-04-06T12:00:06;12.52;;;6.07;;
56005;SDS011;41888;44.696;10.522;2023-04-06T12:02:34;8.65;;;5.30;;
56005;SDS011;41888;44.696;10.522;2023-04-06T12:05:02;9.18;;;4.80;;
56005;SDS011;41888;44.696;10.522;2023-04-06T12:07:30;10.63;;;5.80;;
56005;SDS011;41888;44.696;10.522;2023-04-06T12:09:56;9.77;;;6.38;;
56005;SDS011;41888;44.696;10.522;2023-04-06T12:12:23;9.75;;;5.20;;
56005;SDS011;41888;44.696;10.522;2023-04-06T12:14:50;8.45;;;5.68;;
56005;SDS011;41888;44.696;10.522;2023-04-06T12:17:17;11.13;;;6.20;;
56005;SDS011;41888;44.696;10.522;2023-04-06T12:19:44;10.90;;;6.10;;
56005;SDS011;41888;44.696;10.522;2023-04-06T12:22:10;7.97;;;6.03;;
56005;SDS011;41888;44.696;10.522;2023-04-06T12:24:36;8.82;;;5.85;;
56005;SDS011;41888;44.696;10.522;2023-04-06T12:27:03;9.48;;;6.20;;
56005;SDS011;41888;44.696;10.522;2023-04-06T12:29:29;8.05;;;5.63;;
56005;SDS011;41888;44.696;10.522;2023-04-06T12:31:55;9.25;;;6.30;;
56005;SDS011;41888;44.696;10.522;2023-04-06T12:34:21;12.65;;;5.55;;
56005;SDS011;41888;44.696;10.522;2023-04-06T12:36:48;14.25;;;6.40;;
56005;SDS011;41888;44.696;10.522;2023-04-06T12:39:15;9.20;;;5.82;;
56005;SDS011;41888;44.696;10.522;2023-04-06T12:41:41;6.97;;;5.47;;
56005;SDS011;41888;44.696;10.522;2023-04-06T12:44:08;12.38;;;5.93;;
56005;SDS011;41888;44.696;10.522;2023-04-06T12:46:34;9.73;;;5.78;;
56005;SDS011;41888;44.696;10.522;2023-04-06T12:49:01;8.43;;;5.18;;
56005;SDS011;41888;44.696;10.522;2023-04-06T12:51:28;9.82;;;5.90;;
56005;SDS011;41888;44.696;10.522;2023-04-06T12:53:56;8.25;;;5.13;;
56005;SDS011;41888;44.696;10.522;2023-04-06T12:56:22;9.20;;;5.40;;
56005;SDS011;41888;44.696;10.522;2023-04-06T12:58:50;9.20;;;5.60;;
56005;SDS011;41888;44.696;10.522;2023-04-06T13:01:17;9.77;;;5.82;;
56005;SDS011;41888;44.696;10.522;2023-04-06T13:03:43;8.30;;;5.25;;
56005;SDS011;41888;44.696;10.522;2023-04-06T13:06:10;9.95;;;6.07;;
56005;SDS011;41888;44.696;10.522;2023-04-06T13:08:37;10.40;;;6.32;;
56005;SDS011;41888;44.696;10.522;2023-04-06T13:11:04;17.02;;;7.32;;
56005;SDS011;41888;44.696;10.522;2023-04-06T13:13:33;9.90;;;6.25;;
56005;SDS011;41888;44.696;10.522;2023-04-06T13:16:08;12.55;;;5.63;;
56005;SDS011;41888;44.696;10.522;2023-04-06T13:18:35;9.55;;;5.63;;
56005;SDS011;41888;44.696;10.522;2023-04-06T13:21:03;11.90;;;5.93;;
56005;SDS011;41888;44.696;10.522;2023-04-06T13:23:32;11.55;;;6.18;;
56005;SDS011;41888;44.696;10.522;2023-04-06T13:26:00;11.63;;;5.85;;
56005;SDS011;41888;44.696;10.522;2023-04-06T13:28:28;12.25;;;5.80;;
56005;SDS011;41888;44.696;10.522;2023-04-06T13:30:55;8.43;;;5.90;;
56005;SDS011;41888;44.696;10.522;2023-04-06T13:33:23;8.85;;;4.97;;
56005;SDS011;41888;44.696;10.522;2023-04-06T13:35:49;10.05;;;5.40;;
56005;SDS011;41888;44.696;10.522;2023-04-06T13:38:16;8.60;;;5.57;;
56005;SDS011;41888;44.696;10.522;2023-04-06T13:40:42;9.57;;;5.30;;
56005;SDS011;41888;44.696;10.522;2023-04-06T13:43:08;10.07;;;6.43;;
56005;SDS011;41888;44.696;10.522;2023-04-06T13:45:36;9.05;;;5.47;;
56005;SDS011;41888;44.696;10.522;2023-04-06T13:48:03;8.70;;;5.20;;
56005;SDS011;41888;44.696;10.522;2023-04-06T13:50:30;10.40;;;5.85;;
56005;SDS011;41888;44.696;10.522;2023-04-06T13:52:57;22.65;;;7.90;;
56005;SDS011;41888;44.696;10.522;2023-04-06T13:55:23;12.15;;;5.78;;
56005;SDS011;41888;44.696;10.522;2023-04-06T13:57:50;10.13;;;5.75;;
56005;SDS011;41888;44.696;10.522;2023-04-06T14:00:16;8.32;;;5.07;;
56005;SDS011;41888;44.696;10.522;2023-04-06T14:02:43;8.85;;;6.13;;
56005;SDS011;41888;44.696;10.522;2023-04-06T14:05:10;9.68;;;4.72;;
56005;SDS011;41888;44.696;10.522;2023-04-06T14:07:36;11.05;;;5.05;;
56005;SDS011;41888;44.696;10.522;2023-04-06T14:10:02;10.88;;;4.72;;
56005;SDS011;41888;44.696;10.522;2023-04-06T14:12:29;7.32;;;5.13;;
56005;SDS011;41888;44.696;10.522;2023-04-06T14:14:56;9.73;;;5.18;;
56005;SDS011;41888;44.696;10.522;2023-04-06T14:17:22;9.32;;;5.45;;
56005;SDS011;41888;44.696;10.522;2023-04-06T14:19:48;7.40;;;5.07;;
56005;SDS011;41888;44.696;10.522;2023-04-06T14:22:15;8.45;;;5.60;;
56005;SDS011;41888;44.696;10.522;2023-04-06T14:24:42;12.15;;;6.10;;
56005;SDS011;41888;44.696;10.522;2023-04-06T14:27:08;9.20;;;5.90;;
56005;SDS011;41888;44.696;10.522;2023-04-06T14:29:35;9.52;;;5.93;;
56005;SDS011;41888;44.696;10.522;2023-04-06T14:32:01;12.20;;;5.47;;
56005;SDS011;41888;44.696;10.522;2023-04-06T14:34:27;9.20;;;6.18;;
56005;SDS011;41888;44.696;10.522;2023-04-06T14:36:54;9.70;;;6.35;;
56005;SDS011;41888;44.696;10.522;2023-04-06T14:39:20;9.52;;;6.30;;